Terminal Aerodrome Forecast
Issued by NWS

Home | Current Version | Previous Version | Graphics & Text | Print | Product List | Glossary Off
Versions: 1 2 3 4 5 6 7 8 9 10 11 12 13 14 15 16 17 18 19 20 21 22 23 24 25 26 27 28 29 30 31 32 33 34 35 36 37 38 39 40

000
FTUS43 KDDC 072100 AAA
TAFHYS
TAF AMD
KHYS 072131Z 0722/0818 23013G18KT P6SM FEW100
     FM080200 10009KT P6SM BKN250
      TEMPO 0802/0803 P6SM TS BKN050CB
     FM080500 02018G25KT P6SM SCT250=

USA.gov is the U.S. government's official web portal to all federal, state and local government web resources and services.